Time;durP1;ratioP1;P1;durP2;ratioP2;P2;SDS_P1;SDS_P2;PMS_P1;PMS_P2;Temp;Humidity;BMP_temperature;BMP_pressure;BME280_temperature;BME280_humidity;BME280_pressure;Samples;Min_cycle;Max_cycle;Signal;HPM_P1;HPM_P2
2022/02/03 00:01:26;;;;;;;22.13;7.50;;;;;;;5.50;73.22;101480.41;5079865;28;20426;-75
2022/02/03 00:04:02;;;;;;;14.83;6.10;;;;;;;5.09;74.63;101483.78;5080413;28;20429;-75
2022/02/03 00:06:45;;;;;;;13.57;6.70;;;;;;;5.38;74.12;101480.75;5060743;28;20416;-76
2022/02/03 00:25:12;;;;;;;13.70;6.03;;;;;;;5.12;74.62;101471.88;5062790;28;20641;-75
2022/02/03 00:27:55;;;;;;;17.70;5.70;;;;;;;5.31;74.46;101470.09;5079994;28;20419;-72
2022/02/03 00:30:31;;;;;;;17.67;7.20;;;;;;;5.45;74.04;101473.28;5079867;28;20536;-73
2022/02/03 00:35:56;;;;;;;12.67;6.20;;;;;;;5.66;72.51;101471.59;5080084;28;20724;-77
2022/02/03 00:48:19;;;;;;;13.40;5.43;;;;;;;5.62;73.42;101466.22;5079746;28;20176;-77
2022/02/03 00:49:15;;;;;;;11.97;4.87;;;;;;;6.04;71.19;101446.41;5079679;28;20695;-76
2022/02/03 00:51:45;;;;;;;10.10;5.30;;;;;;;5.95;71.64;101452.91;5079757;28;20470;-78
2022/02/03 00:54:11;;;;;;;12.07;4.47;;;;;;;5.64;71.69;101449.97;5079592;28;20419;-77
2022/02/03 00:56:39;;;;;;;16.37;4.50;;;;;;;5.72;72.09;101440.81;5079630;28;20414;-77
2022/02/03 00:59:08;;;;;;;12.13;5.03;;;;;;;5.86;72.30;101438.78;5080284;28;20584;-75
2022/02/03 01:01:36;;;;;;;21.13;7.70;;;;;;;5.79;72.37;101434.19;5079446;28;20402;-78
2022/02/03 01:04:05;;;;;;;15.30;5.80;;;;;;;5.87;71.82;101426.69;5079217;28;20419;-77
2022/02/03 01:06:33;;;;;;;14.90;5.57;;;;;;;5.85;72.28;101429.22;5079391;28;20419;-78
2022/02/03 01:08:58;;;;;;;10.17;5.20;;;;;;;6.21;70.90;101430.63;5079476;28;20464;-77
2022/02/03 01:11:33;;;;;;;24.23;5.57;;;;;;;6.17;71.07;101431.34;5079744;28;20466;-77
2022/02/03 01:14:17;;;;;;;12.70;5.37;;;;;;;6.19;71.40;101427.13;5061850;28;20175;-77
2022/02/03 01:43:49;;;;;;;12.53;5.00;;;;;;;5.97;71.99;101399.50;5079044;28;20488;-76
2022/02/03 01:46:17;;;;;;;11.37;5.20;;;;;;;6.06;71.23;101407.63;5062500;28;20411;-76
2022/02/03 01:54:03;;;;;;;13.50;5.87;;;;;;;5.97;71.58;101394.31;5090859;28;20477;-77
2022/02/03 01:56:40;;;;;;;11.23;4.70;;;;;;;6.18;71.14;101387.41;5067089;28;20431;-77
2022/02/03 01:59:19;;;;;;;13.00;5.47;;;;;;;6.43;70.46;101377.06;5080519;28;20419;-77
2022/02/03 02:01:44;;;;;;;8.93;4.80;;;;;;;6.16;71.40;101380.41;5079363;28;20423;-77
2022/02/03 02:04:14;;;;;;;15.80;4.90;;;;;;;6.11;71.46;101379.34;5061304;28;20411;-76
2022/02/03 02:07:30;;;;;;;15.10;5.33;;;;;;;6.25;71.37;101367.78;5061387;28;20450;-76
2022/02/03 02:11:13;;;;;;;20.53;5.23;;;;;;;6.43;70.96;101366.72;4981929;28;20520;-76
2022/02/03 02:13:51;;;;;;;15.87;5.80;;;;;;;6.25;71.35;101365.19;5060606;28;20839;-76
2022/02/03 02:16:58;;;;;;;7.80;4.17;;;;;;;6.36;70.57;101353.56;5079391;28;20526;-75
2022/02/03 02:36:57;;;;;;;15.57;5.03;;;;;;;5.86;72.45;101343.03;5079658;28;20489;-75
2022/02/03 02:39:30;;;;;;;11.80;4.47;;;;;;;5.91;72.62;101319.91;5078241;28;20438;-76
2022/02/03 02:45:12;;;;;;;14.33;5.20;;;;;;;6.23;72.00;101322.84;5063203;28;20488;-76
2022/02/03 02:47:51;;;;;;;13.10;4.93;;;;;;;6.15;71.24;101326.88;5078038;28;20412;-75
2022/02/03 02:50:25;;;;;;;13.07;5.70;;;;;;;6.06;71.48;101314.44;5060556;28;20437;-77
2022/02/03 02:52:57;;;;;;;15.60;5.00;;;;;;;6.22;71.55;101308.13;5078123;28;20407;-77
2022/02/03 03:29:20;;;;;;;13.20;4.83;;;;;;;6.34;71.85;101256.78;5066803;28;20425;-76
2022/02/03 03:34:48;;;;;;;12.53;5.67;;;;;;;6.51;71.47;101248.75;5080859;28;20418;-76
2022/02/03 03:37:25;;;;;;;17.30;6.40;;;;;;;6.55;71.23;101248.88;5081069;28;20423;-76
2022/02/03 03:39:56;;;;;;;10.80;5.60;;;;;;;6.81;71.00;101240.25;5081191;28;20415;-77
2022/02/03 03:42:30;;;;;;;20.97;5.57;;;;;;;6.91;70.84;101238.00;5081058;28;20411;-77
2022/02/03 03:44:59;;;;;;;10.40;5.10;;;;;;;6.82;71.22;101241.97;5046916;28;20820;-77
2022/02/03 03:47:27;;;;;;;12.50;5.87;;;;;;;6.60;71.68;101245.56;5080906;28;20419;-77
2022/02/03 03:49:58;;;;;;;13.60;6.37;;;;;;;6.69;71.49;101246.75;5080732;28;20542;-77
2022/02/03 03:52:27;;;;;;;9.77;5.10;;;;;;;6.85;71.93;101237.78;5063920;28;20422;-76
2022/02/03 03:55:25;;;;;;;14.40;5.40;;;;;;;6.51;73.26;101233.22;5080665;28;20423;-76
2022/02/03 04:00:52;;;;;;;11.53;8.23;;;;;;;7.01;72.04;101227.91;5080947;28;20420;-76
2022/02/03 04:45:14;;;;;;;15.40;10.10;;;;;;;6.61;77.92;101200.72;5080131;28;20417;-76
2022/02/03 05:09:29;;;;;;;17.83;12.10;;;;;;;7.10;78.86;101172.88;4969200;28;20768;-77
2022/02/03 05:12:28;;;;;;;20.13;12.70;;;;;;;6.76;79.57;101171.84;5076390;28;20544;-77
2022/02/03 05:15:58;;;;;;;17.90;12.13;;;;;;;6.93;80.88;101156.81;5064874;28;20418;-77
2022/02/03 05:32:04;;;;;;;16.20;10.93;;;;;;;6.91;80.81;101144.69;5062469;28;20866;-78
2022/02/03 05:33:21;;;;;;;19.63;12.70;;;;;;;7.08;80.27;101141.75;5078467;28;20496;-78
2022/02/03 05:47:15;;;;;;;15.10;10.50;;;;;;;7.11;80.16;101128.84;5078672;28;20389;-76
2022/02/03 05:50:00;;;;;;;19.73;10.87;;;;;;;7.18;80.01;101124.75;5078618;28;20414;-77
2022/02/03 05:52:43;;;;;;;14.80;10.87;;;;;;;7.12;80.68;101124.53;5078561;28;20392;-77
2022/02/03 06:17:00;;;;;;;12.13;9.70;;;;;;;7.10;82.08;101106.34;5078552;28;20411;-77
2022/02/03 06:22:42;;;;;;;16.00;11.30;;;;;;;7.16;81.81;101098.75;5063484;28;20827;-76
2022/02/03 06:27:44;;;;;;;11.23;10.13;;;;;;;7.25;82.09;101087.78;5078185;28;20396;-76
2022/02/03 06:30:11;;;;;;;15.60;11.50;;;;;;;7.22;81.85;101085.97;5077970;28;20447;-78
2022/02/03 06:32:38;;;;;;;13.27;10.10;;;;;;;7.26;81.83;101079.16;5078055;28;20422;-77
2022/02/03 06:35:04;;;;;;;14.20;10.73;;;;;;;7.16;82.14;101071.97;5077518;28;20470;-77
2022/02/03 06:37:31;;;;;;;15.43;11.13;;;;;;;7.34;81.77;101075.06;5078411;28;20404;-76
2022/02/03 06:39:57;;;;;;;15.27;11.87;;;;;;;7.15;82.70;101070.22;5077979;28;20843;-76
2022/02/03 06:42:23;;;;;;;18.37;12.40;;;;;;;7.43;82.18;101069.28;5077851;28;20506;-76
2022/02/03 06:44:53;;;;;;;14.83;11.50;;;;;;;7.30;82.51;101065.44;5080479;28;20510;-75
2022/02/03 06:47:28;;;;;;;14.47;11.57;;;;;;;7.51;82.11;101059.09;5082084;28;20406;-76
2022/02/03 06:50:12;;;;;;;16.27;13.00;;;;;;;7.44;82.36;101065.81;5081743;28;20820;-77
2022/02/03 06:55:22;;;;;;;19.07;14.10;;;;;;;7.38;82.58;101058.75;5081755;28;20453;-78
2022/02/03 06:57:56;;;;;;;18.40;12.83;;;;;;;7.58;82.20;101053.25;5081870;28;20421;-76
2022/02/03 07:00:27;;;;;;;19.00;12.50;;;;;;;7.45;83.15;101061.53;5081803;28;20390;-77
2022/02/03 07:02:55;;;;;;;18.53;13.77;;;;;;;7.55;82.43;101051.44;5081973;28;20421;-77
2022/02/03 07:05:22;;;;;;;17.80;14.10;;;;;;;7.45;82.36;101048.56;5081951;28;20419;-77
2022/02/03 07:07:48;;;;;;;15.33;12.77;;;;;;;7.47;83.18;101046.88;5081958;28;20835;-77
2022/02/03 07:10:13;;;;;;;20.47;14.30;;;;;;;7.72;82.36;101038.91;5081524;28;20441;-77
2022/02/03 07:12:38;;;;;;;19.87;13.50;;;;;;;7.40;82.91;101035.44;5081980;28;20234;-76
2022/02/03 07:15:05;;;;;;;16.93;12.87;;;;;;;7.30;83.19;101042.09;5081217;28;20189;-77
2022/02/03 07:17:31;;;;;;;18.33;13.13;;;;;;;7.56;83.22;101036.75;5081286;28;20531;-76
2022/02/03 07:20:01;;;;;;;20.23;12.90;;;;;;;7.61;82.66;101032.56;5082109;28;20514;-77
2022/02/03 07:22:27;;;;;;;15.70;11.83;;;;;;;7.93;81.81;101022.16;5081573;28;20467;-78
2022/02/03 07:24:52;;;;;;;17.60;14.07;;;;;;;7.91;81.88;101034.19;5082193;28;20494;-77
2022/02/03 07:27:21;;;;;;;15.43;12.80;;;;;;;7.68;82.58;101025.81;5082155;28;20546;-76
2022/02/03 07:29:47;;;;;;;16.20;13.00;;;;;;;7.86;82.63;101026.31;5063691;28;20176;-77
2022/02/03 07:32:12;;;;;;;15.57;12.37;;;;;;;7.93;83.03;101020.41;5081309;28;20403;-76
2022/02/03 07:34:39;;;;;;;15.50;13.10;;;;;;;7.85;82.16;101019.34;5081484;28;20481;-75
2022/02/03 07:37:04;;;;;;;17.87;13.87;;;;;;;7.86;82.24;101017.63;5081263;28;20169;-75
2022/02/03 07:39:30;;;;;;;20.17;13.63;;;;;;;7.74;83.15;101020.81;5081421;28;20679;-77
2022/02/03 07:41:55;;;;;;;17.40;13.60;;;;;;;7.97;82.42;101016.19;5080954;28;20177;-76
2022/02/03 07:44:21;;;;;;;20.00;14.07;;;;;;;7.89;82.23;101023.78;5082189;28;20184;-78
2022/02/03 07:46:46;;;;;;;18.30;13.77;;;;;;;7.90;83.44;101022.03;5088572;28;20173;-77
2022/02/03 07:49:11;;;;;;;18.90;13.23;;;;;;;7.95;84.55;101025.63;5091833;28;20478;-77
2022/02/03 07:51:37;;;;;;;19.70;13.97;;;;;;;7.99;83.22;101022.28;5085295;28;20258;-77
2022/02/03 07:54:04;;;;;;;20.73;13.70;;;;;;;7.79;84.24;101033.88;5085348;28;20169;-77
2022/02/03 07:56:30;;;;;;;20.00;13.93;;;;;;;7.88;85.05;101028.94;5081497;28;20215;-77
2022/02/03 07:58:55;;;;;;;17.43;13.80;;;;;;;8.13;83.11;101034.72;5081652;28;20785;-77
2022/02/03 08:01:21;;;;;;;20.07;14.83;;;;;;;7.87;83.95;101027.16;5082054;28;20165;-77
2022/02/03 08:03:46;;;;;;;19.90;13.70;;;;;;;7.89;84.46;101028.09;5081064;28;20450;-78
2022/02/03 08:06:21;;;;;;;23.83;15.13;;;;;;;7.93;84.60;101024.75;5081060;28;20411;-76
2022/02/03 08:08:51;;;;;;;22.73;14.60;;;;;;;8.22;83.58;101025.44;5081048;28;20168;-78
2022/02/03 08:11:26;;;;;;;25.00;16.27;;;;;;;8.12;83.42;101022.56;5064108;28;20495;-77
2022/02/03 08:14:07;;;;;;;22.07;13.90;;;;;;;8.12;83.44;101023.47;5081700;28;20410;-77
2022/02/03 08:16:35;;;;;;;16.23;11.40;;;;;;;11.53;75.53;101006.72;5079924;28;20429;-59
2022/02/03 08:19:07;;;;;;;15.47;11.13;;;;;;;12.41;69.12;101000.53;5079412;28;20419;-59
2022/02/03 08:21:35;;;;;;;10.23;9.13;;;;;;;13.83;65.17;100981.81;5080337;28;20511;-57
2022/02/03 08:24:16;;;;;;;11.80;8.93;;;;;;;13.85;65.00;100987.91;5079874;28;20788;-59
2022/02/03 08:26:51;;;;;;;15.87;9.60;;;;;;;13.58;61.39;100994.88;5080001;28;20477;-58
2022/02/03 08:31:55;;;;;;;13.77;10.57;;;;;;;10.24;71.76;101007.72;5080097;28;20467;-76
2022/02/03 08:37:09;;;;;;;14.77;11.90;;;;;;;9.04;78.91;101003.00;5060704;28;20389;-74
2022/02/03 08:39:43;;;;;;;18.87;13.90;;;;;;;8.58;80.99;101002.91;5062477;28;20415;-74
2022/02/03 08:42:09;;;;;;;21.07;14.57;;;;;;;8.45;82.07;100995.66;5079884;28;20226;-74
2022/02/03 08:44:34;;;;;;;18.30;13.57;;;;;;;8.43;82.85;101000.81;5079521;28;20510;-73
2022/02/03 08:46:59;;;;;;;20.93;15.13;;;;;;;8.29;83.54;100990.09;5079928;28;20496;-74
2022/02/03 08:49:25;;;;;;;21.50;14.47;;;;;;;8.36;83.88;100992.00;5079961;28;20543;-74
2022/02/03 08:51:51;;;;;;;20.47;14.67;;;;;;;8.27;83.83;100984.00;5068962;28;20250;-74
2022/02/03 08:54:16;;;;;;;22.03;15.60;;;;;;;8.11;85.40;100989.69;5042157;28;20176;-73
2022/02/03 08:56:51;;;;;;;23.00;15.97;;;;;;;8.34;85.04;100980.69;5059958;28;20801;-77
2022/02/03 09:29:46;;;;;;;24.43;16.43;;;;;;;8.76;85.23;100966.91;5079596;28;20513;-76
2022/02/03 09:37:58;;;;;;;24.50;17.00;;;;;;;9.22;84.20;100961.72;5079347;28;20750;-82
2022/02/03 09:40:39;;;;;;;25.07;17.73;;;;;;;9.29;83.82;100957.50;5079084;28;20400;-81
2022/02/03 09:56:34;;;;;;;23.93;17.37;;;;;;;8.99;84.49;100965.63;5078668;28;20411;-73
2022/02/03 09:59:09;;;;;;;23.20;14.87;;;;;;;9.22;84.41;100961.72;5064243;28;20414;-73
2022/02/03 10:01:42;;;;;;;23.90;15.67;;;;;;;9.22;85.06;100966.94;5058068;28;20510;-74
2022/02/03 10:04:15;;;;;;;22.60;16.23;;;;;;;9.20;85.42;100968.63;5038250;28;20388;-76
2022/02/03 10:06:50;;;;;;;22.23;15.63;;;;;;;9.24;85.50;100966.94;5028785;28;20420;-76
2022/02/03 10:09:34;;;;;;;22.80;15.03;;;;;;;9.24;85.68;100962.66;5058213;28;20468;-75
2022/02/03 10:12:00;;;;;;;26.87;17.57;;;;;;;9.04;87.32;100956.19;5058063;28;20438;-75
2022/02/03 10:14:37;;;;;;;23.13;16.77;;;;;;;9.17;87.01;100952.09;5057840;28;20519;-76
2022/02/03 10:17:04;;;;;;;35.10;18.33;;;;;;;9.47;85.65;100951.78;5058080;28;20222;-76
2022/02/03 10:19:36;;;;;;;30.50;19.20;;;;;;;9.17;86.36;100958.16;5057880;28;20531;-73
2022/02/03 10:22:10;;;;;;;34.97;21.03;;;;;;;8.96;87.70;100950.84;5058424;28;20397;-73
2022/02/03 10:24:36;;;;;;;35.17;20.60;;;;;;;9.00;88.10;100949.16;5058078;28;20403;-72
2022/02/03 10:27:02;;;;;;;34.93;19.80;;;;;;;9.29;87.26;100941.91;5060328;28;20401;-74
2022/02/03 10:29:44;;;;;;;38.50;22.43;;;;;;;9.20;86.75;100941.72;5078654;28;20726;-74
2022/02/03 10:32:09;;;;;;;40.30;23.37;;;;;;;9.27;86.71;100944.47;5056783;28;20271;-71
2022/02/03 10:34:41;;;;;;;43.13;24.10;;;;;;;9.09;87.75;100939.81;5040149;28;20428;-75
2022/02/03 10:42:29;;;;;;;39.43;22.03;;;;;;;9.65;85.78;100929.50;5058157;28;20215;-71
2022/02/03 10:58:38;;;;;;;36.23;21.67;;;;;;;9.55;86.27;100921.56;5043073;28;20389;-74
2022/02/03 11:01:42;;;;;;;39.73;22.77;;;;;;;9.39;86.54;100923.03;5057906;28;20427;-74
2022/02/03 11:04:39;;;;;;;36.13;22.23;;;;;;;9.30;87.64;100920.25;5045555;28;20419;-74
2022/02/03 11:07:15;;;;;;;39.23;24.60;;;;;;;9.20;87.20;100920.91;5057803;28;20440;-75
2022/02/03 11:12:10;;;;;;;38.77;23.53;;;;;;;9.37;87.58;100919.50;5040083;28;20490;-74
2022/02/03 11:14:37;;;;;;;40.97;25.63;;;;;;;9.14;87.79;100915.63;5040367;28;20444;-73
2022/02/03 11:17:04;;;;;;;39.90;24.50;;;;;;;9.26;87.62;100913.25;5057395;28;20416;-74
2022/02/03 11:19:32;;;;;;;45.43;24.57;;;;;;;9.02;88.76;100911.94;5040703;28;20451;-73
2022/02/03 11:22:04;;;;;;;42.17;23.10;;;;;;;9.39;87.95;100903.91;5042301;28;20818;-74
2022/02/03 11:24:32;;;;;;;42.20;24.90;;;;;;;9.39;87.10;100899.59;5042500;28;20408;-73
2022/02/03 11:32:27;;;;;;;41.20;24.03;;;;;;;9.55;86.33;100897.25;5061062;28;20213;-75
2022/02/03 11:36:08;;;;;;;42.07;22.97;;;;;;;9.17;87.21;100889.66;5046071;28;20531;-74
2022/02/03 11:41:47;;;;;;;38.60;22.97;;;;;;;9.37;86.40;100898.69;5061028;28;20407;-70
2022/02/03 11:44:48;;;;;;;37.97;24.00;;;;;;;9.13;87.51;100898.25;5060623;28;20809;-70
2022/02/03 11:47:47;;;;;;;34.67;22.10;;;;;;;9.07;86.38;100905.09;5060831;28;20390;-70
2022/02/03 11:50:28;;;;;;;35.03;22.80;;;;;;;9.03;86.94;100895.50;5060004;28;20391;-74
2022/02/03 11:56:09;;;;;;;34.50;22.50;;;;;;;8.97;86.75;100882.38;5060756;28;20416;-72
2022/02/03 12:12:24;;;;;;;29.03;20.07;;;;;;;8.98;85.50;100855.50;5039327;28;20474;-73
2022/02/03 12:20:55;;;;;;;26.83;19.10;;;;;;;9.03;85.94;100856.47;5060434;28;20440;-70
2022/02/03 12:24:13;;;;;;;31.00;19.30;;;;;;;9.09;84.34;100859.19;5060452;28;20408;-73
2022/02/03 12:26:47;;;;;;;28.40;19.93;;;;;;;9.22;84.38;100862.00;5030239;28;20455;-74
2022/02/03 12:29:22;;;;;;;30.60;18.57;;;;;;;8.84;85.07;100857.00;5061132;28;20386;-74
2022/02/03 12:37:14;;;;;;;29.90;19.30;;;;;;;8.68;85.18;100848.91;5079970;28;20439;-74
2022/02/03 12:40:02;;;;;;;31.33;19.07;;;;;;;9.03;84.88;100850.41;5079905;28;20820;-75
2022/02/03 12:45:01;;;;;;;29.43;19.57;;;;;;;9.16;83.35;100846.28;5079538;28;20523;-70
2022/02/03 12:47:27;;;;;;;24.20;16.97;;;;;;;8.88;83.80;100840.63;5083318;28;20251;-70
2022/02/03 12:49:52;;;;;;;26.20;18.57;;;;;;;9.00;83.34;100838.22;5100088;28;20434;-70
2022/02/03 12:52:27;;;;;;;22.63;16.13;;;;;;;9.07;82.20;100818.41;5099754;28;20203;-70
2022/02/03 12:54:53;;;;;;;21.43;16.37;;;;;;;9.15;82.41;100816.81;5099705;28;20171;-70
2022/02/03 12:57:35;;;;;;;27.40;16.30;;;;;;;9.29;81.61;100816.16;5099372;28;20782;-71
2022/02/03 13:00:13;;;;;;;23.27;15.77;;;;;;;9.07;82.59;100827.06;5099686;28;20178;-74
2022/02/03 13:02:39;;;;;;;23.20;16.23;;;;;;;9.09;82.27;100822.78;5099610;28;20457;-73
2022/02/03 13:05:04;;;;;;;22.90;15.80;;;;;;;8.96;82.48;100820.81;5099250;28;20426;-72
2022/02/03 13:07:30;;;;;;;24.50;17.57;;;;;;;9.22;81.67;100816.06;5081877;28;20173;-73
2022/02/03 13:10:04;;;;;;;23.10;16.33;;;;;;;8.95;82.81;100810.41;5099500;28;20175;-74
2022/02/03 13:12:36;;;;;;;23.23;14.60;;;;;;;8.60;83.50;100803.69;5099588;28;20172;-73
2022/02/03 13:15:03;;;;;;;24.00;15.77;;;;;;;9.20;81.96;100806.47;5099201;28;20421;-74
2022/02/03 13:17:35;;;;;;;25.27;17.57;;;;;;;9.15;82.18;100793.41;5099830;28;20800;-74
2022/02/03 13:20:13;;;;;;;24.07;17.00;;;;;;;9.32;81.92;100796.25;5099720;28;20679;-72
2022/02/03 13:25:15;;;;;;;22.60;16.03;;;;;;;9.05;82.55;100784.59;5098876;28;20624;-72
2022/02/03 13:33:19;;;;;;;30.80;15.57;;;;;;;8.52;84.72;100789.69;5098913;28;20414;-71
2022/02/03 13:38:25;;;;;;;25.73;16.60;;;;;;;8.75;83.76;100783.22;5078697;28;20411;-71
2022/02/03 13:41:19;;;;;;;21.27;15.67;;;;;;;9.10;82.57;100784.66;5078940;28;20579;-71
2022/02/03 13:43:45;;;;;;;24.27;16.20;;;;;;;8.97;83.33;100780.09;5078265;28;20415;-71
2022/02/03 13:46:23;;;;;;;23.30;16.50;;;;;;;8.95;82.68;100785.25;5078347;28;20472;-73
2022/02/03 13:48:50;;;;;;;19.80;14.40;;;;;;;8.84;83.44;100781.63;5078493;28;20478;-75
2022/02/03 13:51:15;;;;;;;23.33;16.53;;;;;;;8.75;83.17;100772.81;5078425;28;20538;-71
2022/02/03 13:53:48;;;;;;;20.00;14.17;;;;;;;9.05;82.38;100763.78;5078003;28;21133;-71
2022/02/03 14:21:46;;;;;;;17.10;12.20;;;;;;;9.05;81.02;100740.38;5078516;28;20378;-72
2022/02/03 14:27:43;;;;;;;18.20;13.00;;;;;;;8.93;81.13;100738.44;5078726;28;20450;-72
2022/02/03 14:30:14;;;;;;;16.43;11.97;;;;;;;8.92;81.30;100733.22;5074532;28;20438;-72
2022/02/03 14:32:41;;;;;;;17.67;12.57;;;;;;;8.86;81.23;100734.00;5061241;28;20751;-71
2022/02/03 14:35:08;;;;;;;18.53;13.27;;;;;;;8.87;81.67;100727.06;5078304;28;20470;-75
2022/02/03 14:37:46;;;;;;;14.97;12.17;;;;;;;8.98;81.25;100725.50;5077827;28;20378;-70
2022/02/03 14:40:25;;;;;;;18.60;13.50;;;;;;;9.03;80.84;100723.84;5078645;28;20794;-71
2022/02/03 14:42:50;;;;;;;19.20;12.67;;;;;;;8.89;81.29;100714.94;5078628;28;20659;-74
2022/02/03 14:45:18;;;;;;;17.77;12.80;;;;;;;9.07;81.07;100699.66;5060903;28;20399;-72
2022/02/03 14:47:43;;;;;;;19.97;14.00;;;;;;;9.21;79.97;100712.84;5077991;28;20184;-71
2022/02/03 14:50:10;;;;;;;22.57;13.80;;;;;;;9.07;79.96;100715.25;5060413;28;20812;-70
2022/02/03 14:58:06;;;;;;;14.90;11.90;;;;;;;8.99;80.34;100696.06;5077864;28;20459;-71
2022/02/03 15:00:32;;;;;;;15.47;13.20;;;;;;;9.51;78.55;100688.13;5077661;28;20382;-70
2022/02/03 15:02:58;;;;;;;17.70;12.60;;;;;;;9.31;78.47;100690.47;5077477;28;20412;-70
2022/02/03 15:05:30;;;;;;;16.07;11.70;;;;;;;9.20;78.97;100681.63;5079354;28;20165;-72
2022/02/03 15:07:59;;;;;;;16.90;12.37;;;;;;;9.10;79.32;100684.06;5064987;28;20687;-71
2022/02/03 15:13:08;;;;;;;15.20;12.27;;;;;;;9.30;78.21;100678.31;5081343;28;20699;-71
2022/02/03 15:15:33;;;;;;;15.87;12.27;;;;;;;9.61;77.15;100681.31;5082851;28;20414;-71
2022/02/03 15:17:58;;;;;;;16.00;11.67;;;;;;;9.24;78.02;100681.69;5068195;28;20794;-72
2022/02/03 15:20:23;;;;;;;14.90;12.20;;;;;;;9.21;78.26;100688.56;5083442;28;20196;-70
2022/02/03 15:22:49;;;;;;;17.17;12.07;;;;;;;9.29;78.45;100680.88;5081292;28;20196;-73
2022/02/03 15:25:14;;;;;;;15.50;12.50;;;;;;;9.32;77.61;100676.59;5064132;28;20157;-74
2022/02/03 15:27:39;;;;;;;18.03;12.47;;;;;;;9.57;76.69;100676.94;5080781;28;20169;-71
2022/02/03 15:30:06;;;;;;;16.47;12.90;;;;;;;9.85;75.45;100667.72;5081009;28;20477;-71
2022/02/03 15:32:38;;;;;;;14.67;11.03;;;;;;;9.71;75.27;100667.53;5081377;28;20251;-73
2022/02/03 15:35:08;;;;;;;14.83;11.53;;;;;;;9.46;76.05;100673.28;5080776;28;20564;-71
2022/02/03 15:37:34;;;;;;;14.53;11.73;;;;;;;9.74;75.38;100677.13;5081238;28;20407;-71
2022/02/03 15:40:04;;;;;;;17.63;12.03;;;;;;;9.54;75.60;100671.66;5080973;28;20411;-72
2022/02/03 15:42:30;;;;;;;14.27;10.93;;;;;;;9.07;77.39;100671.03;5081003;28;20386;-72
2022/02/03 15:44:58;;;;;;;14.80;10.93;;;;;;;9.08;77.77;100675.41;5081066;28;20826;-75
2022/02/03 15:47:32;;;;;;;16.77;11.80;;;;;;;9.39;76.49;100668.03;5080696;28;20780;-75
2022/02/03 15:50:26;;;;;;;14.57;11.83;;;;;;;9.37;77.03;100669.72;5080901;28;20925;-74
2022/02/03 16:01:22;;;;;;;15.80;11.43;;;;;;;9.22;77.12;100674.72;5080797;28;20400;-71
2022/02/03 16:19:16;;;;;;;15.33;11.97;;;;;;;8.70;78.91;100678.28;5047593;28;20193;-73
2022/02/03 16:21:49;;;;;;;14.60;12.80;;;;;;;9.03;77.96;100678.78;5060322;28;20180;-72
2022/02/03 16:24:39;;;;;;;14.20;11.90;;;;;;;8.56;80.08;100684.97;5060327;28;20449;-75
2022/02/03 16:40:46;;;;;;;13.50;11.10;;;;;;;8.54;80.17;100668.50;5060240;28;20410;-72
2022/02/03 16:51:42;;;;;;;16.80;13.27;;;;;;;8.49;80.53;100636.34;5078710;28;20448;-72
2022/02/03 16:54:12;;;;;;;15.97;12.40;;;;;;;8.59;80.67;100644.31;5078213;28;20398;-72
2022/02/03 16:56:38;;;;;;;15.90;13.43;;;;;;;8.93;79.49;100642.25;5078576;28;20490;-75
2022/02/03 16:59:04;;;;;;;15.80;12.83;;;;;;;8.80;79.17;100645.50;5078670;28;20701;-83
2022/02/03 17:01:29;;;;;;;15.30;12.87;;;;;;;8.91;78.85;100654.34;5061222;28;20208;-75
2022/02/03 17:03:55;;;;;;;18.27;12.30;;;;;;;8.76;79.31;100647.19;5078836;28;20552;-68
2022/02/03 17:06:21;;;;;;;14.00;11.87;;;;;;;8.71;79.61;100648.84;5078397;28;20169;-68
2022/02/03 17:08:46;;;;;;;18.70;13.20;;;;;;;8.75;79.71;100637.66;5078364;28;20226;-68
2022/02/03 17:11:11;;;;;;;14.03;12.53;;;;;;;8.83;78.92;100639.50;5078523;28;20457;-68
2022/02/03 17:13:37;;;;;;;16.10;12.30;;;;;;;8.78;78.74;100644.59;5078253;28;20172;-68
2022/02/03 17:16:02;;;;;;;17.20;13.50;;;;;;;8.63;79.38;100642.63;5078390;28;20510;-69
2022/02/03 17:18:27;;;;;;;15.73;12.90;;;;;;;8.77;79.38;100637.66;5079261;28;20173;-70
2022/02/03 17:20:53;;;;;;;17.03;13.83;;;;;;;8.57;79.80;100637.34;5060673;28;20189;-68
2022/02/03 17:23:22;;;;;;;16.77;13.80;;;;;;;8.69;79.71;100634.09;5078263;28;20184;-68
2022/02/03 17:26:00;;;;;;;17.70;14.53;;;;;;;8.54;79.91;100626.91;5078424;28;20541;-68
2022/02/03 17:28:33;;;;;;;17.77;13.77;;;;;;;8.66;79.98;100629.72;5062178;28;20444;-69
2022/02/03 17:31:06;;;;;;;15.30;12.80;;;;;;;8.82;79.35;100624.72;5078161;28;20437;-69
2022/02/03 17:53:20;;;;;;;15.27;13.30;;;;;;;8.74;79.55;100620.31;5043828;28;20430;-66
2022/02/03 18:03:02;;;;;;;16.07;13.13;;;;;;;8.49;80.59;100619.03;5058408;28;20398;-65
2022/02/03 18:09:33;;;;;;;18.47;13.90;;;;;;;8.49;81.31;100624.22;5058218;28;20492;-69
2022/02/03 18:25:49;;;;;;;16.50;14.40;;;;;;;8.64;80.03;100627.94;5058286;28;20424;-66
2022/02/03 18:30:52;;;;;;;20.50;15.40;;;;;;;8.63;80.08;100613.19;5058909;28;20438;-67
2022/02/03 18:56:47;;;;;;;19.77;15.10;;;;;;;8.53;79.32;100604.38;5057614;28;20174;-67
2022/02/03 20:03:52;;;;;;;22.63;16.50;;;;;;;8.31;80.44;100577.13;5040436;28;20482;-67
2022/02/03 20:06:33;;;;;;;21.80;16.03;;;;;;;8.02;81.24;100588.78;5040833;28;20507;-67
2022/02/03 20:11:37;;;;;;;20.40;16.30;;;;;;;8.03;82.01;100593.13;5040630;28;20434;-67
2022/02/03 20:14:08;;;;;;;23.23;17.63;;;;;;;8.05;82.36;100586.25;5040403;28;20692;-66
2022/02/03 20:16:34;;;;;;;21.40;17.40;;;;;;;7.97;82.59;100576.56;5023325;28;20466;-66
2022/02/03 20:18:59;;;;;;;23.57;18.10;;;;;;;8.02;81.64;100585.31;5041429;28;20764;-67
2022/02/03 20:21:29;;;;;;;25.00;17.73;;;;;;;7.68;82.56;100580.38;5040528;28;20177;-67
2022/02/03 20:23:54;;;;;;;26.67;19.90;;;;;;;7.98;82.48;100581.78;5040567;28;20264;-69
2022/02/03 20:26:20;;;;;;;24.50;18.30;;;;;;;8.03;82.29;100581.88;5040982;28;20441;-67
2022/02/03 20:28:47;;;;;;;29.00;19.27;;;;;;;8.03;82.26;100582.75;5040311;28;20170;-67
2022/02/03 20:31:12;;;;;;;26.13;19.33;;;;;;;8.01;82.25;100578.38;5040340;28;20197;-69
2022/02/03 20:33:37;;;;;;;25.83;17.97;;;;;;;7.81;83.24;100585.81;5040409;28;20376;-67
2022/02/03 20:36:03;;;;;;;24.67;19.40;;;;;;;8.14;82.11;100580.31;5040034;28;20213;-68
2022/02/03 20:38:28;;;;;;;24.83;18.20;;;;;;;8.02;82.45;100570.59;5040635;28;20448;-68
2022/02/03 20:40:53;;;;;;;23.30;18.93;;;;;;;8.37;81.70;100572.91;5023966;28;20430;-68
2022/02/03 20:43:21;;;;;;;26.37;19.20;;;;;;;8.32;80.68;100577.19;5039945;28;20443;-66
2022/02/03 20:45:46;;;;;;;25.97;18.30;;;;;;;8.20;81.11;100575.25;5022656;28;20174;-69
2022/02/03 20:48:11;;;;;;;29.67;19.43;;;;;;;8.30;80.84;100572.81;5040291;28;20384;-68
2022/02/03 20:50:37;;;;;;;25.50;19.13;;;;;;;8.09;80.81;100572.47;5039820;28;20578;-68
2022/02/03 20:53:06;;;;;;;25.80;19.93;;;;;;;8.42;80.81;100576.47;5022725;28;20170;-69
2022/02/03 20:55:31;;;;;;;28.00;20.20;;;;;;;7.96;81.71;100567.06;5040306;28;20420;-68
2022/02/03 20:57:58;;;;;;;24.80;19.53;;;;;;;7.91;82.31;100577.34;5056336;28;20391;-70
2022/02/03 21:00:34;;;;;;;24.27;18.27;;;;;;;7.93;83.14;100568.72;5059434;28;20256;-69
2022/02/03 21:03:05;;;;;;;26.50;19.40;;;;;;;8.09;81.91;100567.28;5058571;28;20495;-67
2022/02/03 21:05:30;;;;;;;29.37;20.60;;;;;;;8.37;81.83;100559.91;5059505;28;20839;-66
2022/02/03 21:07:57;;;;;;;26.50;19.67;;;;;;;7.89;83.20;100560.88;5060110;28;20397;-67
2022/02/03 21:10:27;;;;;;;24.70;19.57;;;;;;;8.04;82.99;100557.66;5062685;28;20198;-68
2022/02/03 21:12:55;;;;;;;29.53;20.37;;;;;;;8.37;82.34;100546.94;5059312;28;20391;-66
2022/02/03 21:15:24;;;;;;;32.33;19.90;;;;;;;7.98;83.64;100553.22;5059582;28;20404;-66
2022/02/03 21:17:51;;;;;;;29.73;20.97;;;;;;;8.04;83.60;100552.47;5060269;28;20379;-67
2022/02/03 21:20:19;;;;;;;31.10;21.20;;;;;;;8.01;83.37;100557.59;5059541;28;20448;-68
2022/02/03 21:22:44;;;;;;;28.97;20.47;;;;;;;8.17;83.33;100554.44;5042630;28;20814;-66
2022/02/03 21:25:33;;;;;;;34.90;22.70;;;;;;;8.11;83.62;100545.66;5058874;28;20412;-66